createdAt,value
2023-08-29T00:01:07.338Z,4.77
2023-08-29T00:03:35.062Z,5.03
2023-08-29T00:06:02.992Z,7.37
2023-08-29T00:08:30.281Z,13.63
2023-08-29T00:10:57.775Z,9.00
2023-08-29T00:13:25.322Z,5.80
2023-08-29T00:15:52.686Z,4.73
2023-08-29T00:18:23.106Z,9.67
2023-08-29T00:20:50.413Z,10.83
2023-08-29T00:23:17.083Z,4.47
2023-08-29T00:25:43.748Z,4.47
2023-08-29T00:28:11.854Z,4.90
2023-08-29T00:30:43.104Z,5.00
2023-08-29T00:33:11.423Z,4.20
2023-08-29T00:35:38.227Z,10.90
2023-08-29T00:38:05.379Z,4.90
2023-08-29T00:40:32.776Z,6.03
2023-08-29T00:43:03.993Z,4.60
2023-08-29T00:45:35.503Z,6.40
2023-08-29T00:48:02.867Z,4.80
2023-08-29T00:50:31.543Z,5.60
2023-08-29T00:53:05.429Z,5.30
2023-08-29T00:55:34.736Z,5.50
2023-08-29T00:58:05.983Z,5.40
2023-08-29T01:00:33.629Z,5.00
2023-08-29T01:03:01.705Z,4.50
2023-08-29T01:05:31.335Z,5.97
2023-08-29T01:08:01.061Z,6.93
2023-08-29T01:10:55.821Z,5.50
2023-08-29T01:13:45.464Z,5.37
2023-08-29T01:16:13.827Z,6.40
2023-08-29T01:18:42.128Z,14.03
2023-08-29T01:21:30.352Z,4.73
2023-08-29T01:24:05.691Z,10.60
2023-08-29T01:26:32.769Z,6.83
2023-08-29T01:29:02.025Z,7.77
2023-08-29T01:31:31.075Z,4.40
2023-08-29T01:33:58.940Z,6.33
2023-08-29T01:36:38.917Z,13.33
2023-08-29T01:39:05.650Z,5.67
2023-08-29T01:41:32.337Z,9.63
2023-08-29T01:43:59.234Z,6.40
2023-08-29T01:46:25.961Z,5.20
2023-08-29T01:48:52.893Z,4.97
2023-08-29T01:51:19.859Z,8.97
2023-08-29T01:53:46.583Z,7.17
2023-08-29T01:56:16.615Z,7.00
2023-08-29T01:58:45.202Z,5.00
2023-08-29T02:01:22.628Z,6.13
2023-08-29T02:03:50.529Z,7.00
2023-08-29T02:06:17.275Z,4.83
2023-08-29T02:08:45.712Z,6.97
2023-08-29T02:11:12.427Z,7.33
2023-08-29T02:13:39.105Z,9.10
2023-08-29T02:16:05.805Z,5.40
2023-08-29T02:18:33.523Z,8.50
2023-08-29T02:21:00.251Z,5.00
2023-08-29T02:23:26.931Z,6.03
2023-08-29T02:26:05.081Z,4.60
2023-08-29T02:28:38.426Z,8.80
2023-08-29T02:31:09.832Z,6.20
2023-08-29T02:33:40.704Z,6.73
2023-08-29T02:36:07.761Z,9.10
2023-08-29T02:38:35.540Z,8.33
2023-08-29T02:41:02.747Z,8.23
2023-08-29T02:43:29.493Z,5.77
2023-08-29T02:45:56.385Z,5.43
2023-08-29T02:48:23.210Z,6.00
2023-08-29T02:50:49.982Z,9.30
2023-08-29T02:53:17.953Z,6.17
2023-08-29T02:55:44.769Z,6.50
2023-08-29T02:58:11.476Z,6.93
2023-08-29T03:00:38.219Z,6.17
2023-08-29T03:03:06.025Z,7.60
2023-08-29T03:05:33.491Z,11.20
2023-08-29T03:08:01.300Z,6.13
2023-08-29T03:10:28.031Z,6.77
2023-08-29T03:12:54.671Z,5.37
2023-08-29T03:15:21.346Z,7.40
2023-08-29T03:17:48.544Z,6.33
2023-08-29T03:20:16.733Z,7.83
2023-08-29T03:22:43.393Z,6.53
2023-08-29T03:25:10.612Z,5.03
2023-08-29T03:27:37.353Z,6.10
2023-08-29T03:30:04.535Z,5.53
2023-08-29T03:32:31.315Z,5.00
2023-08-29T03:34:59.470Z,11.03
2023-08-29T03:37:26.251Z,8.63
2023-08-29T03:39:56.152Z,8.67
2023-08-29T03:42:23.105Z,5.90
2023-08-29T03:44:49.745Z,5.97
2023-08-29T03:47:16.469Z,13.03
2023-08-29T03:49:43.251Z,5.47
2023-08-29T03:52:09.953Z,7.00
2023-08-29T03:54:36.595Z,6.20
2023-08-29T03:57:03.741Z,9.37
2023-08-29T03:59:31.476Z,10.07
2023-08-29T04:01:59.196Z,10.00
2023-08-29T04:04:25.935Z,4.93
2023-08-29T04:06:54.149Z,7.07
2023-08-29T04:09:20.781Z,6.00
2023-08-29T04:11:47.404Z,5.87
2023-08-29T04:14:14.045Z,4.63
2023-08-29T04:16:40.702Z,6.73
2023-08-29T04:19:07.471Z,5.03
2023-08-29T04:21:34.218Z,5.67
2023-08-29T04:24:00.933Z,8.57
2023-08-29T04:26:27.577Z,9.60
2023-08-29T04:28:54.213Z,5.80
2023-08-29T04:31:22.155Z,7.87
2023-08-29T04:33:49.003Z,6.67
2023-08-29T04:36:17.939Z,9.30
2023-08-29T04:38:46.358Z,8.23
2023-08-29T04:41:13.023Z,7.03
2023-08-29T04:43:40.622Z,5.80
2023-08-29T04:46:10.622Z,10.90
2023-08-29T04:48:37.822Z,7.40
2023-08-29T04:51:07.732Z,8.30
2023-08-29T04:53:34.483Z,7.30
2023-08-29T04:56:02.352Z,8.73
2023-08-29T04:58:29.878Z,7.27
2023-08-29T05:00:56.981Z,11.67
2023-08-29T05:03:23.931Z,8.87
2023-08-29T05:05:52.946Z,7.50
2023-08-29T05:08:19.691Z,7.23
2023-08-29T05:10:46.444Z,8.57
2023-08-29T05:13:13.082Z,15.00
2023-08-29T05:15:41.385Z,10.13
2023-08-29T05:18:10.186Z,8.07
2023-08-29T05:20:38.133Z,7.83
2023-08-29T05:23:05.481Z,14.60
2023-08-29T05:25:32.474Z,11.40
2023-08-29T05:27:59.357Z,9.70
2023-08-29T05:30:26.011Z,8.37
2023-08-29T05:32:55.655Z,12.73
2023-08-29T05:35:22.370Z,13.60
2023-08-29T05:37:49.040Z,12.93
2023-08-29T05:40:15.813Z,17.27
2023-08-29T05:42:42.568Z,13.30
2023-08-29T05:45:09.827Z,13.40
2023-08-29T05:47:36.486Z,11.20
2023-08-29T05:50:03.607Z,12.73
2023-08-29T05:52:31.337Z,15.77
2023-08-29T05:54:58.779Z,13.00
2023-08-29T05:57:26.211Z,12.33
2023-08-29T05:59:54.956Z,16.00
2023-08-29T06:02:22.096Z,12.57
2023-08-29T06:04:49.151Z,17.87
2023-08-29T06:07:16.287Z,11.60
2023-08-29T06:09:43.371Z,13.67
2023-08-29T06:12:10.448Z,12.37
2023-08-29T06:14:37.162Z,11.60
2023-08-29T06:17:03.905Z,12.13
2023-08-29T06:19:30.572Z,16.73
2023-08-29T06:21:57.205Z,18.93
2023-08-29T06:24:23.926Z,19.50
2023-08-29T06:26:50.581Z,21.20
2023-08-29T06:29:17.785Z,33.90
2023-08-29T06:31:44.475Z,29.27
2023-08-29T06:34:11.459Z,31.00
2023-08-29T06:36:38.354Z,31.33
2023-08-29T06:39:06.025Z,27.87
2023-08-29T06:41:32.807Z,30.47
2023-08-29T06:43:59.495Z,28.23
2023-08-29T06:46:26.268Z,31.77
2023-08-29T06:48:52.896Z,31.57
2023-08-29T06:51:19.575Z,31.83
2023-08-29T06:53:46.232Z,29.70
2023-08-29T06:56:12.892Z,33.70
2023-08-29T06:58:39.707Z,33.13
2023-08-29T07:01:06.424Z,33.63
2023-08-29T07:03:34.281Z,34.57
2023-08-29T07:06:01.032Z,36.33
2023-08-29T07:08:27.746Z,33.40
2023-08-29T07:10:54.362Z,33.00
2023-08-29T07:13:21.211Z,43.00
2023-08-29T07:15:47.861Z,32.57
2023-08-29T07:18:14.609Z,34.30
2023-08-29T07:20:41.348Z,32.47
2023-08-29T07:23:08.404Z,31.43
2023-08-29T07:25:40.021Z,32.77
2023-08-29T07:28:15.855Z,35.37
2023-08-29T07:30:44.607Z,32.97
2023-08-29T07:33:12.944Z,35.47
2023-08-29T07:35:43.280Z,36.03
2023-08-29T07:38:10.641Z,36.50
2023-08-29T07:40:37.751Z,36.00
2023-08-29T07:43:07.220Z,33.47
2023-08-29T07:45:34.838Z,30.47
2023-08-29T07:48:02.415Z,32.03
2023-08-29T07:50:29.298Z,27.97
2023-08-29T07:52:56.002Z,30.03
2023-08-29T07:55:22.921Z,26.33
2023-08-29T07:57:50.005Z,31.37
2023-08-29T08:00:17.803Z,27.03
2023-08-29T08:02:45.446Z,29.80
2023-08-29T08:05:14.310Z,28.37
2023-08-29T08:07:43.715Z,30.67
2023-08-29T08:10:11.940Z,28.20
2023-08-29T08:12:40.094Z,29.90
2023-08-29T08:15:08.925Z,26.63
2023-08-29T08:17:36.171Z,28.00
2023-08-29T08:20:09.093Z,28.17
2023-08-29T08:22:39.869Z,26.77
2023-08-29T08:25:08.642Z,27.57
2023-08-29T08:27:41.230Z,23.70
2023-08-29T08:30:09.483Z,27.33
2023-08-29T08:32:37.009Z,25.77
2023-08-29T08:35:08.273Z,29.00
2023-08-29T08:37:35.783Z,25.60
2023-08-29T08:40:10.420Z,27.00
2023-08-29T08:42:38.825Z,27.70
2023-08-29T08:45:07.007Z,21.77
2023-08-29T08:47:38.251Z,23.63
2023-08-29T08:50:09.356Z,26.50
2023-08-29T08:52:36.524Z,25.00
2023-08-29T08:55:03.675Z,25.10
2023-08-29T08:57:30.518Z,23.50
2023-08-29T08:59:57.175Z,23.17
2023-08-29T09:02:25.419Z,23.30
2023-08-29T09:04:52.102Z,25.50
2023-08-29T09:07:18.754Z,23.37
2023-08-29T09:10:06.111Z,26.63
2023-08-29T09:12:32.780Z,24.03
2023-08-29T09:15:05.097Z,21.53
2023-08-29T09:17:32.273Z,22.27
2023-08-29T09:20:00.760Z,24.57
2023-08-29T09:22:28.220Z,21.40
2023-08-29T09:25:04.049Z,26.07
2023-08-29T09:27:30.836Z,21.80
2023-08-29T09:30:17.665Z,21.37
2023-08-29T09:32:49.304Z,24.70
2023-08-29T09:35:20.171Z,23.13
2023-08-29T09:37:56.081Z,23.70
2023-08-29T09:42:59.843Z,22.00
2023-08-29T09:45:29.518Z,23.57
2023-08-29T09:48:10.351Z,19.30
2023-08-29T09:50:38.575Z,19.43
2023-08-29T09:53:06.290Z,18.17
2023-08-29T09:55:37.610Z,18.67
2023-08-29T09:58:06.585Z,17.90
2023-08-29T10:00:37.215Z,17.50
2023-08-29T10:03:08.820Z,15.93
2023-08-29T10:05:37.706Z,11.93
2023-08-29T10:08:33.844Z,15.70
2023-08-29T10:11:01.694Z,20.20
2023-08-29T10:13:29.583Z,14.40
2023-08-29T10:15:58.292Z,11.97
2023-08-29T10:18:26.838Z,11.50
2023-08-29T10:20:54.832Z,11.00
2023-08-29T10:23:23.558Z,13.70
2023-08-29T10:25:50.594Z,13.10
2023-08-29T10:28:19.088Z,12.80
2023-08-29T10:30:53.123Z,13.43
2023-08-29T10:33:20.367Z,14.43
2023-08-29T10:35:50.136Z,16.47
2023-08-29T10:38:18.467Z,11.27
2023-08-29T10:40:47.178Z,20.43
2023-08-29T10:43:20.025Z,10.37
2023-08-29T10:45:55.088Z,15.27
2023-08-29T10:48:23.473Z,12.07
2023-08-29T10:51:11.252Z,13.00
2023-08-29T10:53:47.852Z,12.57
2023-08-29T10:56:15.277Z,10.10
2023-08-29T10:58:48.714Z,11.80
2023-08-29T11:01:37.333Z,16.13
2023-08-29T11:04:17.210Z,11.90
2023-08-29T11:06:58.097Z,12.33
2023-08-29T11:09:26.188Z,10.70
2023-08-29T11:12:17.086Z,13.00
2023-08-29T11:14:53.492Z,9.87
2023-08-29T11:17:24.564Z,10.93
2023-08-29T11:19:59.298Z,9.67
2023-08-29T11:22:28.049Z,10.80
2023-08-29T11:24:58.269Z,10.03
2023-08-29T11:27:32.644Z,14.30
2023-08-29T11:30:17.867Z,12.00
2023-08-29T11:32:52.821Z,10.60
2023-08-29T11:35:19.833Z,13.20
2023-08-29T11:37:46.484Z,8.80
2023-08-29T11:40:23.317Z,9.80
2023-08-29T11:43:09.633Z,12.67
2023-08-29T11:45:48.372Z,10.93
2023-08-29T11:48:29.858Z,9.60
2023-08-29T11:51:07.437Z,14.13
2023-08-29T11:53:37.257Z,8.80
2023-08-29T11:56:05.885Z,12.23
2023-08-29T11:58:38.291Z,13.90
2023-08-29T12:01:08.189Z,8.60
2023-08-29T12:03:39.700Z,11.43
2023-08-29T12:06:13.826Z,11.23
2023-08-29T12:08:45.545Z,11.70
2023-08-29T12:11:17.792Z,8.90
2023-08-29T12:14:01.730Z,9.70
2023-08-29T12:16:29.616Z,13.97
2023-08-29T12:19:14.966Z,12.70
2023-08-29T12:21:41.670Z,9.93
2023-08-29T12:24:13.018Z,15.60
2023-08-29T12:26:39.798Z,14.13
2023-08-29T12:29:06.533Z,13.40
2023-08-29T12:31:33.976Z,12.50
2023-08-29T12:34:00.635Z,11.70
2023-08-29T12:36:27.388Z,14.13
2023-08-29T12:38:54.053Z,11.60
2023-08-29T12:41:20.690Z,11.63
2023-08-29T12:43:47.364Z,10.83
2023-08-29T12:46:15.036Z,9.33
2023-08-29T12:48:42.029Z,8.23
2023-08-29T12:51:09.001Z,10.53
2023-08-29T12:53:35.700Z,10.33
2023-08-29T12:56:02.352Z,9.67
2023-08-29T12:58:31.069Z,8.40
2023-08-29T13:00:57.933Z,6.87
2023-08-29T13:03:26.664Z,9.93
2023-08-29T13:05:53.564Z,7.30
2023-08-29T13:08:23.665Z,6.30
2023-08-29T13:10:50.320Z,6.17
2023-08-29T13:13:17.397Z,10.90
2023-08-29T13:15:50.903Z,6.57
2023-08-29T13:18:18.904Z,7.40
2023-08-29T13:20:45.706Z,5.27
2023-08-29T13:23:12.351Z,4.37
2023-08-29T13:25:39.069Z,4.17
2023-08-29T13:28:06.370Z,4.97
2023-08-29T13:30:34.066Z,4.77
2023-08-29T13:33:00.750Z,4.00
2023-08-29T13:35:27.420Z,4.60
2023-08-29T13:37:54.087Z,6.70
2023-08-29T13:40:21.834Z,5.03
2023-08-29T13:42:50.421Z,5.60
2023-08-29T13:45:19.275Z,4.83
2023-08-29T13:47:47.241Z,5.73
2023-08-29T13:50:14.180Z,4.03
2023-08-29T13:52:40.829Z,3.40
2023-08-29T13:55:09.770Z,3.80
2023-08-29T13:57:36.811Z,3.27
2023-08-29T14:00:08.683Z,4.53
2023-08-29T14:02:35.465Z,4.27
2023-08-29T14:05:02.374Z,4.03
2023-08-29T14:07:29.024Z,3.77
2023-08-29T14:09:55.658Z,5.30
2023-08-29T14:12:22.335Z,4.33
2023-08-29T14:14:49.008Z,3.70
2023-08-29T14:17:15.688Z,3.60
2023-08-29T14:19:42.366Z,5.37
2023-08-29T14:22:09.511Z,3.70
2023-08-29T14:24:36.283Z,2.93
2023-08-29T14:27:03.220Z,2.80
2023-08-29T14:29:31.386Z,5.57
2023-08-29T14:31:59.185Z,3.17
2023-08-29T14:34:25.871Z,4.00
2023-08-29T14:36:52.602Z,4.40
2023-08-29T14:39:19.437Z,2.33
2023-08-29T14:41:46.179Z,3.40
2023-08-29T14:44:13.188Z,5.37
2023-08-29T14:46:40.157Z,4.77
2023-08-29T14:49:06.890Z,3.30
2023-08-29T14:51:33.542Z,5.20
2023-08-29T14:54:04.302Z,3.03
2023-08-29T14:56:31.511Z,3.20
2023-08-29T14:58:58.389Z,5.40
2023-08-29T15:01:25.812Z,3.70
2023-08-29T15:03:52.653Z,3.10
2023-08-29T15:06:19.477Z,2.90
2023-08-29T15:08:46.305Z,2.80
2023-08-29T15:11:13.012Z,3.87
2023-08-29T15:13:42.802Z,2.70
2023-08-29T15:16:09.610Z,3.93
2023-08-29T15:18:36.460Z,2.50
2023-08-29T15:21:03.199Z,5.67
2023-08-29T15:23:33.156Z,3.40
2023-08-29T15:25:59.907Z,3.70
2023-08-29T15:28:29.960Z,4.20
2023-08-29T15:31:02.387Z,4.20
2023-08-29T15:33:30.324Z,2.70
2023-08-29T15:35:58.116Z,2.23
2023-08-29T15:38:25.654Z,2.63
2023-08-29T15:40:55.926Z,2.50
2023-08-29T15:43:23.949Z,3.70
2023-08-29T15:45:50.828Z,4.40
2023-08-29T15:48:18.541Z,3.30
2023-08-29T15:50:46.158Z,6.37
2023-08-29T15:53:13.919Z,4.07
2023-08-29T15:55:43.941Z,4.23
2023-08-29T15:58:10.754Z,3.73
2023-08-29T16:00:38.208Z,3.47
2023-08-29T16:03:07.626Z,3.00
2023-08-29T16:05:34.485Z,3.47
2023-08-29T16:08:01.544Z,3.30
2023-08-29T16:10:28.246Z,6.03
2023-08-29T16:12:55.778Z,3.27
2023-08-29T16:15:22.489Z,6.10
2023-08-29T16:17:49.238Z,3.23
2023-08-29T16:20:16.097Z,5.53
2023-08-29T16:22:42.998Z,4.30
2023-08-29T16:25:10.189Z,8.47
2023-08-29T16:27:37.190Z,6.73
2023-08-29T16:30:06.240Z,8.00
2023-08-29T16:32:33.194Z,5.33
2023-08-29T16:35:00.281Z,5.13
2023-08-29T16:37:26.959Z,7.60
2023-08-29T16:39:53.846Z,4.70
2023-08-29T16:42:20.977Z,6.13
2023-08-29T16:44:48.039Z,4.40
2023-08-29T16:47:14.758Z,4.83
2023-08-29T16:49:41.694Z,3.87
2023-08-29T16:52:08.669Z,3.47
2023-08-29T16:54:36.435Z,5.17
2023-08-29T16:57:03.699Z,5.70
2023-08-29T16:59:59.221Z,3.70
2023-08-29T17:02:26.557Z,4.43
2023-08-29T17:04:54.244Z,4.00
2023-08-29T17:07:21.036Z,4.17
2023-08-29T17:09:47.980Z,5.13
2023-08-29T17:12:19.199Z,4.80
2023-08-29T17:14:49.624Z,6.03
2023-08-29T17:17:16.713Z,4.73
2023-08-29T17:19:44.608Z,5.00
2023-08-29T17:22:11.462Z,5.57
2023-08-29T17:24:38.887Z,5.00
2023-08-29T17:27:06.657Z,4.40
2023-08-29T17:29:33.839Z,4.03
2023-08-29T17:32:00.773Z,3.33
2023-08-29T17:34:27.827Z,4.13
2023-08-29T17:36:54.599Z,5.43
2023-08-29T17:39:21.296Z,4.07
2023-08-29T17:41:47.941Z,4.50
2023-08-29T17:44:14.605Z,4.97
2023-08-29T17:46:41.330Z,2.87
2023-08-29T17:49:09.142Z,5.00
2023-08-29T17:51:37.167Z,4.53
2023-08-29T17:54:03.972Z,4.43
2023-08-29T17:56:32.177Z,3.00
2023-08-29T17:58:59.583Z,3.60
2023-08-29T18:01:26.343Z,5.67
2023-08-29T18:03:53.112Z,3.40
2023-08-29T18:06:25.109Z,23.73
2023-08-29T18:08:54.711Z,3.23
2023-08-29T18:11:22.609Z,11.73
2023-08-29T18:13:49.442Z,2.97
2023-08-29T18:16:16.184Z,4.50
2023-08-29T18:18:42.951Z,6.10
2023-08-29T18:21:11.719Z,4.13
2023-08-29T18:23:39.250Z,3.47
2023-08-29T18:26:07.056Z,3.33
2023-08-29T18:28:34.256Z,3.10
2023-08-29T18:31:02.103Z,6.20
2023-08-29T18:33:29.149Z,4.23
2023-08-29T18:35:55.909Z,3.60
2023-08-29T18:38:24.343Z,7.40
2023-08-29T18:40:51.794Z,5.50
2023-08-29T18:43:18.523Z,5.33
2023-08-29T18:45:45.550Z,5.10
2023-08-29T18:48:12.460Z,4.60
2023-08-29T18:50:40.755Z,5.27
2023-08-29T18:53:07.489Z,4.17
2023-08-29T18:55:34.280Z,4.20
2023-08-29T18:58:01.071Z,4.53
2023-08-29T19:00:29.058Z,6.30
2023-08-29T19:02:57.959Z,5.13
2023-08-29T19:05:24.742Z,4.83
2023-08-29T19:07:57.424Z,6.63
2023-08-29T19:10:24.194Z,3.57
2023-08-29T19:12:50.868Z,4.00
2023-08-29T19:15:17.654Z,4.00
2023-08-29T19:17:44.656Z,7.77
2023-08-29T19:20:12.021Z,6.03
2023-08-29T19:22:38.990Z,3.63
2023-08-29T19:25:05.903Z,7.93
2023-08-29T19:27:32.689Z,5.07
2023-08-29T19:29:59.505Z,4.00
2023-08-29T19:32:26.485Z,4.80
2023-08-29T19:34:53.829Z,3.87
2023-08-29T19:37:22.353Z,3.67
2023-08-29T19:39:49.066Z,5.00
2023-08-29T19:42:15.749Z,11.87
2023-08-29T19:44:42.655Z,3.90
2023-08-29T19:47:09.297Z,3.37
2023-08-29T19:49:39.846Z,4.60
2023-08-29T19:52:06.976Z,4.63
2023-08-29T19:54:33.866Z,4.50
2023-08-29T19:57:00.588Z,4.50
2023-08-29T19:59:27.236Z,4.80
2023-08-29T20:01:54.031Z,4.30
2023-08-29T20:04:20.769Z,8.00
2023-08-29T20:06:49.451Z,5.13
2023-08-29T20:09:16.700Z,12.93
2023-08-29T20:11:45.759Z,5.73
2023-08-29T20:14:15.471Z,3.53
2023-08-29T20:16:42.204Z,3.27
2023-08-29T20:19:11.992Z,3.93
2023-08-29T20:21:38.804Z,5.00
2023-08-29T20:24:06.665Z,3.80
2023-08-29T20:26:33.370Z,10.23
2023-08-29T20:29:03.018Z,4.50
2023-08-29T20:31:32.466Z,3.53
2023-08-29T20:33:59.115Z,5.77
2023-08-29T20:36:25.879Z,3.60
2023-08-29T20:38:52.621Z,4.73
2023-08-29T20:41:19.354Z,3.77
2023-08-29T20:43:46.040Z,5.57
2023-08-29T20:46:15.635Z,6.30
2023-08-29T20:48:43.172Z,6.37
2023-08-29T20:51:09.872Z,4.33
2023-08-29T20:53:36.809Z,4.63
2023-08-29T20:56:07.180Z,4.63
2023-08-29T20:58:33.876Z,6.53
2023-08-29T21:01:01.644Z,3.30
2023-08-29T21:03:30.451Z,6.43
2023-08-29T21:05:58.213Z,5.17
2023-08-29T21:08:26.608Z,5.50
2023-08-29T21:10:54.290Z,3.20
2023-08-29T21:13:22.043Z,3.60
2023-08-29T21:15:50.189Z,3.13
2023-08-29T21:18:18.833Z,3.60
2023-08-29T21:20:50.221Z,4.17
2023-08-29T21:23:16.866Z,3.70
2023-08-29T21:25:50.485Z,3.93
2023-08-29T21:28:21.661Z,6.47
2023-08-29T21:30:48.359Z,3.83
2023-08-29T21:33:15.518Z,3.57
2023-08-29T21:35:43.817Z,4.27
2023-08-29T21:38:12.329Z,3.80
2023-08-29T21:40:40.805Z,4.00
2023-08-29T21:43:08.551Z,3.80
2023-08-29T21:45:35.945Z,3.23
2023-08-29T21:48:05.023Z,5.43
2023-08-29T21:50:39.075Z,4.47
2023-08-29T21:53:10.873Z,3.13
2023-08-29T21:55:39.431Z,5.30
2023-08-29T21:58:07.752Z,5.90
2023-08-29T22:00:35.311Z,5.77
2023-08-29T22:03:03.302Z,5.50
2023-08-29T22:05:31.251Z,3.43
2023-08-29T22:07:59.278Z,5.43
2023-08-29T22:10:26.727Z,3.70
2023-08-29T22:12:53.474Z,5.17
2023-08-29T22:15:20.870Z,5.93
2023-08-29T22:17:47.946Z,3.30
2023-08-29T22:20:15.079Z,3.80
2023-08-29T22:22:42.012Z,4.37
2023-08-29T22:25:09.713Z,4.77
2023-08-29T22:27:36.827Z,7.03
2023-08-29T22:30:05.252Z,4.87
2023-08-29T22:32:32.747Z,6.67
2023-08-29T22:35:00.400Z,4.33
2023-08-29T22:37:27.185Z,5.50
2023-08-29T22:39:54.654Z,5.07
2023-08-29T22:42:22.060Z,3.90
2023-08-29T22:44:48.946Z,5.80
2023-08-29T22:47:16.604Z,7.53
2023-08-29T22:49:44.353Z,4.80
2023-08-29T22:52:11.518Z,10.30
2023-08-29T22:54:38.806Z,9.23
2023-08-29T22:57:06.294Z,4.27
2023-08-29T22:59:33.028Z,4.43
2023-08-29T23:02:00.353Z,5.00
2023-08-29T23:04:30.207Z,4.30
2023-08-29T23:07:05.045Z,5.00
2023-08-29T23:09:32.847Z,5.63
2023-08-29T23:11:59.682Z,4.47
2023-08-29T23:14:27.531Z,6.87
2023-08-29T23:16:54.846Z,5.63
2023-08-29T23:19:24.456Z,6.10
2023-08-29T23:21:51.908Z,7.10
2023-08-29T23:24:19.130Z,6.33
2023-08-29T23:26:45.835Z,6.90
2023-08-29T23:29:12.707Z,3.70
2023-08-29T23:31:40.934Z,6.97
2023-08-29T23:34:07.992Z,4.77
2023-08-29T23:36:35.031Z,6.40
2023-08-29T23:39:02.068Z,5.00
2023-08-29T23:41:28.867Z,7.60
2023-08-29T23:43:55.965Z,6.77
2023-08-29T23:46:22.715Z,4.33
2023-08-29T23:48:49.482Z,7.67
2023-08-29T23:51:16.400Z,7.40
2023-08-29T23:53:43.079Z,8.33
2023-08-29T23:56:09.787Z,4.93
2023-08-29T23:58:36.490Z,7.37
